Time;durP1;ratioP1;P1;durP2;ratioP2;P2;SDS_P1;SDS_P2;PMS_P1;PMS_P2;Temp;Humidity;BMP_temperature;BMP_pressure;BME280_temperature;BME280_humidity;BME280_pressure;Samples;Min_cycle;Max_cycle;Signal;HPM_P1;HPM_P2
2022/03/18 00:00:33;;;;;;;0.40;0.40;;;6.00;99.90;6.30;103653.00;;;;5115847;28;20176;-78
2022/03/18 00:02:59;;;;;;;0.30;0.30;;;6.30;99.90;6.40;103665.00;;;;5100493;28;20318;-77
2022/03/18 00:05:25;;;;;;;0.30;0.30;;;6.60;99.90;6.00;103646.00;;;;5096664;28;20180;-77
2022/03/18 00:07:52;;;;;;;0.30;0.30;;;6.50;99.90;5.60;103650.00;;;;5114179;28;20631;-77
2022/03/18 00:10:20;;;;;;;0.30;0.30;;;6.20;99.90;5.70;103652.00;;;;5097158;28;20614;-77
2022/03/18 00:12:52;;;;;;;0.30;0.30;;;6.00;99.90;5.30;103653.00;;;;5114069;28;20211;-78
2022/03/18 00:15:18;;;;;;;0.30;0.30;;;5.80;99.90;5.40;103647.00;;;;5098254;28;20230;-77
2022/03/18 00:17:44;;;;;;;0.30;0.30;;;5.80;99.90;5.60;103664.00;;;;5096155;28;20683;-77
2022/03/18 00:20:12;;;;;;;0.30;0.30;;;5.90;99.90;4.50;103657.00;;;;5115281;27;20209;-77
2022/03/18 00:22:44;;;;;;;0.40;0.40;;;5.60;99.90;4.20;103668.00;;;;5097951;28;20183;-77
2022/03/18 00:25:11;;;;;;;0.53;0.53;;;5.30;99.90;4.80;103666.00;;;;5113844;28;20177;-78
2022/03/18 00:27:39;;;;;;;0.40;0.40;;;5.30;99.90;5.10;103651.00;;;;5114924;28;20663;-78
2022/03/18 00:30:06;;;;;;;0.30;0.30;;;5.40;99.90;4.90;103676.00;;;;5097233;28;20187;-77
2022/03/18 00:32:33;;;;;;;0.40;0.40;;;5.30;99.90;4.80;103672.00;;;;5095161;28;20216;-78
2022/03/18 00:34:59;;;;;;;1.30;1.30;;;5.20;99.90;5.00;103674.00;;;;5114032;28;20289;-78
2022/03/18 00:37:25;;;;;;;0.30;0.30;;;5.20;99.90;5.10;103680.00;;;;5115276;28;20176;-78
2022/03/18 00:39:51;;;;;;;0.30;0.30;;;5.40;99.90;5.00;103665.00;;;;5114411;28;20168;-78
2022/03/18 00:42:20;;;;;;;0.30;0.30;;;5.30;99.90;4.90;103620.00;;;;5114818;28;20550;-78
2022/03/18 00:44:48;;;;;;;0.40;0.40;;;5.20;99.90;5.40;103680.00;;;;5114046;28;20218;-79
2022/03/18 00:52:43;;;;;;;0.50;0.50;;;5.60;99.90;5.20;103637.00;;;;5115254;28;20215;-75
2022/03/18 00:55:12;;;;;;;0.30;0.30;;;5.60;99.90;5.10;103688.00;;;;5111508;28;20180;-75
2022/03/18 00:57:38;;;;;;;0.30;0.30;;;5.50;99.90;5.00;103631.00;;;;5113739;28;20168;-76
2022/03/18 01:00:06;;;;;;;0.30;0.30;;;5.40;99.90;4.90;103649.00;;;;5114856;28;20519;-76
2022/03/18 01:02:32;;;;;;;0.30;0.30;;;5.30;99.90;4.70;103681.00;;;;5096635;28;20184;-77
2022/03/18 01:04:58;;;;;;;0.40;0.40;;;5.20;99.90;4.80;103635.00;;;;5114053;28;20175;-76
2022/03/18 01:07:24;;;;;;;0.30;0.30;;;5.10;99.90;4.80;103657.00;;;;5095522;28;20237;-75
2022/03/18 01:09:50;;;;;;;0.30;0.30;;;5.30;99.90;4.60;103627.00;;;;5113655;28;20177;-76
2022/03/18 01:12:17;;;;;;;0.30;0.30;;;5.10;99.90;5.00;103682.00;;;;5113831;28;20203;-76
2022/03/18 01:14:46;;;;;;;0.30;0.30;;;5.10;99.90;4.60;103655.00;;;;5095976;28;20172;-75
2022/03/18 01:17:12;;;;;;;0.30;0.30;;;5.10;99.90;4.60;103656.00;;;;5113704;28;20263;-76
2022/03/18 01:19:38;;;;;;;0.30;0.30;;;5.00;99.90;4.80;103681.00;;;;5096687;28;20584;-76
2022/03/18 01:22:04;;;;;;;0.30;0.30;;;5.00;99.90;4.50;103674.00;;;;5095319;28;20214;-76
2022/03/18 01:24:30;;;;;;;0.30;0.30;;;5.00;99.90;4.30;103630.00;;;;5096586;28;20176;-76
2022/03/18 01:26:56;;;;;;;0.83;0.83;;;4.80;99.90;4.40;103658.00;;;;5113717;28;20258;-77
2022/03/18 01:29:23;;;;;;;0.40;0.40;;;4.80;99.90;4.30;103655.00;;;;5095991;28;20695;-75
2022/03/18 01:31:48;;;;;;;0.30;0.30;;;4.70;99.90;4.30;103679.00;;;;5114383;28;20211;-78
2022/03/18 01:34:14;;;;;;;0.30;0.30;;;4.60;99.90;4.20;103675.00;;;;5096411;28;20187;-77
2022/03/18 01:36:40;;;;;;;0.40;0.40;;;4.60;99.90;4.40;103684.00;;;;5114397;28;20176;-77
2022/03/18 01:39:06;;;;;;;0.30;0.30;;;4.60;99.90;4.70;103641.00;;;;5114450;28;20191;-77
2022/03/18 01:41:33;;;;;;;0.50;0.50;;;4.80;99.90;4.50;103682.00;;;;5096055;28;20627;-77
2022/03/18 01:43:58;;;;;;;0.53;0.53;;;4.80;99.90;4.70;103679.00;;;;5113690;28;20176;-78
2022/03/18 01:46:24;;;;;;;0.53;0.53;;;4.90;99.90;4.60;103694.00;;;;5114543;28;20226;-77
2022/03/18 01:48:50;;;;;;;0.30;0.30;;;4.90;99.90;4.30;103691.00;;;;5112826;28;20183;-77
2022/03/18 01:51:17;;;;;;;0.40;0.40;;;4.90;99.90;4.50;103688.00;;;;5096181;28;20204;-77
2022/03/18 01:53:44;;;;;;;0.30;0.30;;;4.80;99.90;4.30;103667.00;;;;5112746;28;20160;-77
2022/03/18 01:56:11;;;;;;;0.40;0.40;;;4.80;99.90;4.10;103687.00;;;;5095395;28;20186;-78
2022/03/18 01:58:38;;;;;;;0.40;0.40;;;4.60;99.90;3.90;103678.00;;;;5095502;28;20176;-77
2022/03/18 02:01:04;;;;;;;0.30;0.30;;;4.50;99.90;4.30;103701.00;;;;5112633;28;20634;-78
2022/03/18 02:03:30;;;;;;;0.33;0.33;;;4.50;99.90;4.10;103701.00;;;;5113020;28;20638;-78
2022/03/18 02:05:57;;;;;;;0.40;0.40;;;4.50;99.90;4.10;103658.00;;;;5112641;28;20172;-77
2022/03/18 02:08:25;;;;;;;0.30;0.30;;;4.60;99.90;4.60;103692.00;;;;5095030;28;20223;-77
2022/03/18 02:10:52;;;;;;;0.30;0.30;;;4.70;99.90;4.70;103712.00;;;;5114467;28;20752;-77
2022/03/18 02:13:22;;;;;;;0.30;0.30;;;5.00;99.90;4.20;103691.00;;;;5112551;28;20700;-77
2022/03/18 02:15:48;;;;;;;0.47;0.47;;;4.80;99.90;4.00;103695.00;;;;5113862;28;20190;-77
2022/03/18 02:18:14;;;;;;;0.30;0.30;;;4.50;99.90;4.00;103654.00;;;;5113608;28;20615;-77
2022/03/18 02:20:39;;;;;;;0.30;0.30;;;4.40;99.90;4.20;103698.00;;;;5094799;28;20172;-77
2022/03/18 02:23:06;;;;;;;0.30;0.30;;;4.50;99.90;4.40;103705.00;;;;5113520;28;20184;-77
2022/03/18 02:25:32;;;;;;;0.60;0.60;;;4.70;99.90;4.20;103695.00;;;;5112034;28;20176;-77
2022/03/18 02:28:03;;;;;;;0.30;0.30;;;4.60;99.90;4.20;103696.00;;;;5112114;28;20633;-78
2022/03/18 02:30:32;;;;;;;0.40;0.40;;;4.60;99.90;3.90;103699.00;;;;5112596;28;20187;-76
2022/03/18 02:33:00;;;;;;;0.40;0.40;;;4.40;99.90;4.00;103712.00;;;;5111792;28;20665;-78
2022/03/18 02:35:28;;;;;;;0.30;0.30;;;4.40;99.90;4.20;103726.00;;;;5095404;28;20559;-77
2022/03/18 02:37:57;;;;;;;0.30;0.30;;;4.40;99.90;4.30;103716.00;;;;5112655;28;20558;-77
2022/03/18 02:40:27;;;;;;;0.33;0.33;;;4.50;99.90;4.20;103705.00;;;;5094939;28;20184;-76
2022/03/18 02:42:53;;;;;;;0.40;0.40;;;4.50;99.90;4.30;103724.00;;;;5113499;28;20172;-76
2022/03/18 02:45:20;;;;;;;6.10;5.80;;;4.60;99.90;4.30;103721.00;;;;5095597;28;20610;-78
2022/03/18 02:47:46;;;;;;;0.30;0.30;;;4.70;99.90;4.20;103723.00;;;;5094995;28;20377;-77
2022/03/18 02:50:15;;;;;;;0.30;0.30;;;4.60;99.90;4.30;103738.00;;;;5094070;28;20197;-78
2022/03/18 02:52:42;;;;;;;1.73;1.67;;;4.70;99.90;4.00;103732.00;;;;5113537;28;20253;-77
2022/03/18 02:55:10;;;;;;;0.30;0.30;;;4.50;99.90;4.20;103741.00;;;;5095214;28;20180;-78
2022/03/18 02:57:38;;;;;;;0.30;0.30;;;4.70;99.90;4.50;103690.00;;;;5111357;28;20180;-77
2022/03/18 03:00:07;;;;;;;0.40;0.40;;;4.80;99.90;4.20;103752.00;;;;5095449;28;20266;-77
2022/03/18 03:02:34;;;;;;;0.30;0.30;;;4.80;99.90;4.60;103761.00;;;;5111761;28;20206;-78
2022/03/18 03:07:59;;;;;;;0.60;0.60;;;4.90;99.90;4.00;103700.00;;;;5113546;28;20207;-76
2022/03/18 03:10:30;;;;;;;0.30;0.30;;;4.80;99.90;3.90;103748.00;;;;5113220;28;20662;-77
2022/03/18 03:12:59;;;;;;;0.30;0.30;;;4.60;99.90;4.30;103765.00;;;;5112311;28;20208;-78
2022/03/18 03:15:28;;;;;;;0.30;0.30;;;4.60;99.90;4.40;103758.00;;;;5112376;28;20520;-78
2022/03/18 03:17:59;;;;;;;0.40;0.40;;;4.60;99.90;4.50;103714.00;;;;5112792;28;20176;-75
2022/03/18 03:20:25;;;;;;;0.30;0.30;;;4.80;99.90;4.10;103760.00;;;;5115989;28;20295;-75
2022/03/18 03:22:54;;;;;;;0.30;0.30;;;4.60;99.90;3.50;103754.00;;;;5116026;28;20176;-76
2022/03/18 03:25:20;;;;;;;0.30;0.30;;;4.20;99.90;3.50;103751.00;;;;5115346;28;20175;-75
2022/03/18 03:27:46;;;;;;;0.30;0.30;;;4.10;99.90;3.90;103767.00;;;;5098496;28;20212;-76
2022/03/18 03:30:13;;;;;;;0.30;0.30;;;4.10;99.90;3.80;103782.00;;;;5115264;28;20183;-76
2022/03/18 03:32:39;;;;;;;0.30;0.30;;;4.20;99.90;3.80;103775.00;;;;5115619;28;20264;-77
2022/03/18 03:35:06;;;;;;;0.53;0.53;;;4.20;99.90;3.80;103783.00;;;;5098978;28;20233;-77
2022/03/18 03:37:32;;;;;;;0.57;0.57;;;4.20;99.90;4.00;103785.00;;;;5097641;28;20234;-77
2022/03/18 03:39:58;;;;;;;0.40;0.40;;;4.40;99.90;4.00;103777.00;;;;5115630;28;20623;-77
2022/03/18 03:42:24;;;;;;;0.30;0.30;;;4.40;99.90;3.60;103782.00;;;;5098128;28;20548;-77
2022/03/18 03:44:50;;;;;;;0.40;0.40;;;4.20;99.90;3.60;103783.00;;;;5097923;28;20183;-77
2022/03/18 03:47:16;;;;;;;0.30;0.30;;;4.00;99.90;3.60;103798.00;;;;5098202;28;20212;-77
2022/03/18 03:49:42;;;;;;;0.30;0.30;;;4.00;99.90;3.80;103790.00;;;;5116921;28;20213;-77
2022/03/18 03:52:10;;;;;;;0.40;0.40;;;4.10;99.90;3.80;103796.00;;;;5098357;28;20232;-76
2022/03/18 03:54:37;;;;;;;0.30;0.30;;;4.10;99.90;3.40;103750.00;;;;5116672;28;20515;-77
2022/03/18 03:57:04;;;;;;;0.37;0.37;;;4.10;99.90;3.50;103751.00;;;;5115787;28;20183;-76
2022/03/18 03:59:30;;;;;;;0.30;0.30;;;4.00;99.90;3.60;103789.00;;;;5114465;28;20171;-76
2022/03/18 04:01:57;;;;;;;0.40;0.40;;;3.90;99.90;3.60;103788.00;;;;5116221;28;20635;-77
2022/03/18 04:04:24;;;;;;;0.40;0.40;;;4.00;99.90;3.80;103795.00;;;;5115484;28;20176;-77
2022/03/18 04:06:50;;;;;;;0.40;0.40;;;3.90;99.90;3.90;103754.00;;;;5112258;28;20602;-77
2022/03/18 04:09:18;;;;;;;0.40;0.40;;;4.20;99.90;3.70;103793.00;;;;5113222;28;20183;-77
2022/03/18 04:11:44;;;;;;;0.40;0.40;;;4.10;99.90;3.20;103795.00;;;;5096256;28;20551;-76
2022/03/18 04:14:10;;;;;;;0.30;0.30;;;3.90;99.90;3.10;103804.00;;;;5095913;28;20180;-77
2022/03/18 04:16:36;;;;;;;0.63;0.63;;;3.70;99.90;3.30;103742.00;;;;5095959;28;20186;-77
2022/03/18 04:19:03;;;;;;;0.30;0.30;;;3.80;99.90;3.60;103813.00;;;;5095229;28;20192;-76
2022/03/18 04:21:29;;;;;;;1.10;1.07;;;3.90;99.90;3.40;103755.00;;;;5095324;28;20191;-77
2022/03/18 04:23:55;;;;;;;0.40;0.40;;;3.90;99.90;3.10;103809.00;;;;5113664;28;20266;-75
2022/03/18 04:26:21;;;;;;;0.40;0.40;;;3.70;99.90;3.40;103790.00;;;;5114010;28;20283;-76
2022/03/18 04:28:47;;;;;;;0.30;0.30;;;3.70;99.90;3.30;103815.00;;;;5114370;28;20512;-77
2022/03/18 04:31:13;;;;;;;1.00;1.00;;;3.80;99.90;3.70;103825.00;;;;5096701;28;20180;-76
2022/03/18 04:33:39;;;;;;;0.40;0.40;;;3.90;99.90;3.80;103727.00;;;;5114514;28;20270;-77
2022/03/18 04:36:05;;;;;;;0.40;0.40;;;4.00;99.90;3.60;103761.00;;;;5097767;28;20180;-76
2022/03/18 04:38:34;;;;;;;0.30;0.30;;;4.00;99.90;3.60;103763.00;;;;5114134;28;20597;-73
2022/03/18 04:40:59;;;;;;;1.17;1.17;;;3.90;99.90;3.70;103816.00;;;;5113817;28;20172;-76
2022/03/18 04:43:25;;;;;;;0.30;0.30;;;4.00;99.90;3.70;103801.00;;;;5097245;28;20191;-77
2022/03/18 04:45:51;;;;;;;0.30;0.30;;;4.00;99.90;3.80;103822.00;;;;5114324;28;20172;-77
2022/03/18 04:48:17;;;;;;;0.40;0.40;;;4.00;99.90;3.70;103820.00;;;;5113753;28;20184;-76
2022/03/18 04:50:43;;;;;;;0.37;0.37;;;4.10;99.90;3.60;103784.00;;;;5115811;28;20168;-76
2022/03/18 04:53:08;;;;;;;0.30;0.30;;;4.00;99.90;4.10;103817.00;;;;5113865;28;20259;-76
2022/03/18 04:55:34;;;;;;;0.90;0.90;;;4.10;99.90;3.90;103797.00;;;;5097234;28;20187;-75
2022/03/18 04:58:00;;;;;;;0.30;0.30;;;4.20;99.90;3.80;103761.00;;;;5113399;28;20176;-77
2022/03/18 05:00:26;;;;;;;0.40;0.40;;;4.20;99.90;4.00;103817.00;;;;5114276;28;20271;-76
2022/03/18 05:02:52;;;;;;;0.37;0.37;;;4.20;99.90;3.80;103824.00;;;;5113426;28;20176;-76
2022/03/18 05:05:19;;;;;;;0.40;0.40;;;4.20;99.90;4.00;103826.00;;;;5114112;28;20177;-76
2022/03/18 05:07:54;;;;;;;0.30;0.30;;;4.30;99.90;4.20;103838.00;;;;5114659;28;20229;-76
2022/03/18 05:10:22;;;;;;;0.30;0.30;;;4.40;99.90;4.20;103786.00;;;;5114112;28;20526;-76
2022/03/18 05:12:48;;;;;;;0.30;0.30;;;4.50;99.90;4.20;103834.00;;;;5113576;28;20227;-76
2022/03/18 05:15:16;;;;;;;0.30;0.30;;;4.50;99.90;4.20;103850.00;;;;5113879;28;20501;-76
2022/03/18 05:17:50;;;;;;;0.30;0.30;;;4.50;99.90;4.10;103845.00;;;;5113602;28;20213;-76
2022/03/18 05:20:18;;;;;;;0.30;0.30;;;4.40;99.90;4.10;103829.00;;;;5113643;28;20534;-76
2022/03/18 05:22:45;;;;;;;1.23;1.20;;;4.30;99.90;3.90;103840.00;;;;5113407;28;20176;-77
2022/03/18 05:25:12;;;;;;;0.30;0.30;;;4.30;99.90;3.70;103828.00;;;;5113587;28;20182;-77
2022/03/18 05:27:41;;;;;;;4.10;3.70;;;4.20;99.90;3.50;103828.00;;;;5114690;28;20683;-77
2022/03/18 05:30:16;;;;;;;1.33;1.07;;;4.10;99.90;3.60;103817.00;;;;5096758;28;20172;-78
2022/03/18 05:32:42;;;;;;;0.40;0.40;;;4.00;99.90;3.70;103833.00;;;;5113006;28;20290;-78
2022/03/18 05:35:10;;;;;;;0.37;0.37;;;4.00;99.90;3.50;103827.00;;;;5113273;28;20874;-74
2022/03/18 05:37:36;;;;;;;0.73;0.73;;;4.00;99.90;3.50;103836.00;;;;5096162;28;20218;-74
2022/03/18 05:40:04;;;;;;;0.30;0.30;;;4.00;99.90;3.50;103840.00;;;;5113730;28;20228;-74
2022/03/18 05:42:29;;;;;;;0.30;0.30;;;4.00;99.90;3.80;103846.00;;;;5095090;28;20188;-76
2022/03/18 05:44:55;;;;;;;0.40;0.40;;;4.10;99.90;3.70;103789.00;;;;5096222;28;20226;-79
2022/03/18 05:47:21;;;;;;;0.30;0.30;;;4.20;99.90;4.10;103816.00;;;;5111646;28;20176;-78
2022/03/18 05:49:47;;;;;;;0.30;0.30;;;4.20;99.90;4.20;103866.00;;;;5111321;28;20184;-78
2022/03/18 05:52:13;;;;;;;1.40;1.40;;;4.40;99.90;4.30;103859.00;;;;5096175;28;20288;-78
2022/03/18 05:54:38;;;;;;;0.30;0.30;;;4.50;99.90;4.70;103816.00;;;;5104621;28;20230;-79
2022/03/18 05:57:04;;;;;;;20.67;18.97;;;4.70;99.90;4.50;103871.00;;;;5092839;28;20188;-78
2022/03/18 05:59:33;;;;;;;0.40;0.40;;;4.80;99.90;4.60;103825.00;;;;5074437;28;20204;-79
2022/03/18 06:02:03;;;;;;;0.30;0.30;;;4.80;99.90;4.60;103868.00;;;;5092536;28;20190;-76
2022/03/18 06:04:32;;;;;;;0.40;0.40;;;4.80;99.90;4.60;103856.00;;;;5075793;28;20224;-76
2022/03/18 06:06:58;;;;;;;0.40;0.40;;;4.90;99.90;4.20;103876.00;;;;5074563;28;20288;-77
2022/03/18 06:12:09;;;;;;;0.30;0.30;;;4.60;99.90;3.90;103879.00;;;;5092096;28;20725;-78
2022/03/18 06:14:35;;;;;;;0.40;0.40;;;4.40;99.90;4.30;103896.00;;;;5092464;28;20188;-75
2022/03/18 06:17:04;;;;;;;0.40;0.40;;;4.50;99.90;4.30;103885.00;;;;5092325;28;20185;-75
2022/03/18 06:19:31;;;;;;;0.40;0.40;;;4.60;99.90;4.50;103893.00;;;;5091302;28;20305;-75
2022/03/18 06:21:58;;;;;;;0.30;0.30;;;4.70;99.90;4.50;103891.00;;;;5074799;28;20197;-76
2022/03/18 06:24:25;;;;;;;0.40;0.40;;;4.80;99.90;4.20;103868.00;;;;5075618;28;20177;-76
2022/03/18 06:26:52;;;;;;;21.73;19.43;;;4.70;99.90;4.30;103837.00;;;;5075375;28;20216;-75
2022/03/18 06:30:11;;;;;;;0.40;0.40;;;4.70;99.90;4.30;103892.00;;;;5092096;28;20165;-75
2022/03/18 06:32:37;;;;;;;0.30;0.30;;;4.70;99.90;4.30;103901.00;;;;5091658;28;20220;-76
2022/03/18 06:35:04;;;;;;;0.30;0.30;;;4.80;99.90;4.60;103907.00;;;;5091983;28;20181;-75
2022/03/18 06:37:29;;;;;;;0.40;0.40;;;4.90;99.90;5.00;103905.00;;;;5093269;28;20219;-76
2022/03/18 06:39:58;;;;;;;0.30;0.30;;;5.10;99.90;4.80;103876.00;;;;5091331;28;20628;-75
2022/03/18 06:42:25;;;;;;;0.40;0.40;;;5.20;99.90;4.70;103872.00;;;;5092511;28;20181;-77
2022/03/18 06:44:51;;;;;;;0.60;0.60;;;5.30;99.90;4.80;103902.00;;;;5092303;28;20166;-76
2022/03/18 06:47:17;;;;;;;0.40;0.40;;;5.40;99.90;5.40;103860.00;;;;5093040;28;20178;-75
2022/03/18 06:49:42;;;;;;;0.83;0.83;;;5.70;99.90;6.10;103924.00;;;;5091224;28;20269;-76
2022/03/18 06:52:08;;;;;;;0.60;0.60;;;6.20;99.90;6.30;103904.00;;;;5074817;28;20669;-76
2022/03/18 06:54:34;;;;;;;0.43;0.43;;;6.60;99.90;7.10;103868.00;;;;5096257;28;20179;-75
2022/03/18 06:57:00;;;;;;;0.30;0.30;;;7.00;99.90;6.90;103913.00;;;;5096370;28;20168;-76
2022/03/18 06:59:26;;;;;;;0.30;0.30;;;7.30;99.90;7.20;103928.00;;;;5078933;28;20237;-75
2022/03/18 07:01:53;;;;;;;0.30;0.30;;;7.50;99.90;8.20;103914.00;;;;5096831;28;20177;-76
2022/03/18 07:04:19;;;;;;;0.30;0.30;;;8.20;99.90;8.20;103939.00;;;;5096203;28;20176;-76
2022/03/18 07:06:46;;;;;;;0.30;0.30;;;8.40;99.90;9.00;103947.00;;;;5095867;28;20177;-75
2022/03/18 07:09:12;;;;;;;0.30;0.30;;;8.90;99.90;9.60;103955.00;;;;5094426;28;20181;-76
2022/03/18 07:11:37;;;;;;;0.50;0.50;;;9.40;99.90;10.10;103962.00;;;;5096923;28;20555;-77
2022/03/18 07:14:03;;;;;;;0.30;0.30;;;9.90;99.90;10.90;103956.00;;;;5095934;28;20180;-77
2022/03/18 07:19:14;;;;;;;0.23;0.23;;;11.30;99.90;10.70;104068.00;;;;5096347;28;20245;-76
2022/03/18 07:21:40;;;;;;;0.30;0.30;;;11.40;99.90;13.00;104091.00;;;;5093721;28;20247;-76
2022/03/18 07:24:06;;;;;;;0.30;0.30;;;12.10;99.90;13.70;104115.00;;;;5095576;28;20624;-76
2022/03/18 07:26:32;;;;;;;0.27;0.27;;;13.00;99.90;13.90;104130.00;;;;5096636;28;20165;-76
2022/03/18 07:29:01;;;;;;;0.10;0.10;;;13.30;99.90;14.10;104116.00;;;;5096242;28;20177;-77
2022/03/18 07:31:27;;;;;;;0.10;0.10;;;13.70;99.90;13.30;104171.00;;;;5094288;28;20233;-78
2022/03/18 07:33:52;;;;;;;0.30;0.30;;;13.80;99.90;10.40;104124.00;;;;5078482;28;20553;-79
2022/03/18 07:36:18;;;;;;;0.50;0.50;;;11.90;99.90;10.50;104070.00;;;;5095209;28;20625;-79
2022/03/18 07:38:45;;;;;;;0.90;0.77;;;11.20;99.90;11.50;104116.00;;;;5078123;28;20181;-78
2022/03/18 07:41:12;;;;;;;0.20;0.20;;;11.70;99.90;13.00;104139.00;;;;5095374;28;20166;-77
2022/03/18 07:43:38;;;;;;;0.40;0.40;;;12.40;99.90;13.00;104108.00;;;;5095417;28;20217;-77
2022/03/18 07:46:04;;;;;;;0.57;0.57;;;12.80;99.90;12.50;104150.00;;;;5077881;28;20222;-77
2022/03/18 07:48:30;;;;;;;0.17;0.17;;;12.90;99.90;13.40;104152.00;;;;5078102;28;20619;-76
2022/03/18 07:50:55;;;;;;;0.20;0.20;;;13.00;99.90;13.80;104178.00;;;;5096008;28;20285;-77
2022/03/18 07:53:22;;;;;;;0.23;0.23;;;13.40;99.90;13.60;104200.00;;;;5077127;28;20236;-77
2022/03/18 07:55:50;;;;;;;4.47;4.13;;;13.60;99.90;13.70;104203.00;;;;5094266;28;20249;-78
2022/03/18 07:58:16;;;;;;;0.93;0.40;;;13.70;99.90;14.20;104209.00;;;;5094858;28;20686;-77
2022/03/18 08:00:45;;;;;;;1.50;1.40;;;13.70;99.90;13.50;104222.00;;;;5094597;28;20164;-77
2022/03/18 08:03:11;;;;;;;0.60;0.60;;;13.80;99.90;13.30;104209.00;;;;5094336;28;20182;-79
2022/03/18 08:05:37;;;;;;;0.20;0.20;;;13.50;99.90;14.20;104233.00;;;;5094235;28;20179;-79
2022/03/18 08:08:04;;;;;;;0.20;0.20;;;13.80;99.90;12.80;104217.00;;;;5077709;28;20281;-78
2022/03/18 08:10:30;;;;;;;0.93;0.43;;;13.00;99.90;12.90;104224.00;;;;5094597;28;20235;-77
2022/03/18 08:12:56;;;;;;;0.10;0.10;;;13.10;99.90;12.20;104208.00;;;;5094431;28;20252;-78
2022/03/18 08:15:23;;;;;;;0.20;0.20;;;12.50;99.90;13.20;104180.00;;;;5095574;28;20670;-76
2022/03/18 08:17:52;;;;;;;1.10;0.90;;;13.00;99.90;12.10;104165.00;;;;5093573;28;20249;-77
2022/03/18 08:20:20;;;;;;;4.80;4.00;;;12.60;99.90;12.60;104161.00;;;;5095092;28;20540;-77
2022/03/18 08:22:49;;;;;;;0.20;0.20;;;12.60;99.90;12.90;104205.00;;;;5094075;28;20212;-75
2022/03/18 08:25:16;;;;;;;1.00;0.87;;;12.70;99.90;12.60;104228.00;;;;5077267;28;20182;-76
2022/03/18 08:27:42;;;;;;;1.03;1.03;;;12.80;99.90;13.40;104221.00;;;;5094168;28;20170;-76
2022/03/18 08:30:11;;;;;;;0.43;0.43;;;13.00;99.90;13.10;104233.00;;;;5096408;28;20199;-75
2022/03/18 08:32:37;;;;;;;0.27;0.27;;;13.20;99.90;12.90;104243.00;;;;5097355;28;20219;-76
2022/03/18 08:35:05;;;;;;;0.17;0.17;;;13.10;99.90;13.40;104252.00;;;;5114647;28;20180;-75
2022/03/18 08:40:20;;;;;;;0.40;0.40;;;13.50;99.90;13.90;104277.00;;;;5097814;28;20226;-77
2022/03/18 08:42:45;;;;;;;0.67;0.67;;;13.80;99.90;13.60;104235.00;;;;5092618;28;20620;-76
2022/03/18 08:45:11;;;;;;;1.13;1.13;;;13.80;99.90;12.50;104266.00;;;;5093699;28;20252;-76
2022/03/18 08:47:38;;;;;;;3.70;1.10;;;13.20;99.90;12.00;104208.00;;;;5094058;28;20586;-76
2022/03/18 08:50:05;;;;;;;0.10;0.10;;;12.40;99.90;13.80;104283.00;;;;5077230;28;20213;-72
2022/03/18 08:52:32;;;;;;;0.20;0.20;;;13.10;99.90;14.30;104300.00;;;;5076582;28;20307;-73
2022/03/18 08:55:00;;;;;;;0.33;0.33;;;13.90;99.90;11.70;104277.00;;;;5093114;28;20178;-74
2022/03/18 08:57:28;;;;;;;0.60;0.50;;;12.80;99.90;11.90;104281.00;;;;5094964;28;20244;-76
2022/03/18 08:59:56;;;;;;;0.40;0.40;;;12.50;99.90;13.00;104292.00;;;;5092920;28;20220;-75
2022/03/18 09:02:23;;;;;;;1.13;0.80;;;12.80;99.90;13.80;104315.00;;;;5093677;28;20702;-76
2022/03/18 09:04:50;;;;;;;0.80;0.80;;;13.40;99.90;13.90;104323.00;;;;5093654;28;20255;-63
2022/03/18 09:07:17;;;;;;;0.77;0.77;;;13.60;99.90;13.80;104332.00;;;;5094287;28;20632;-73
2022/03/18 09:09:43;;;;;;;0.87;0.83;;;13.80;99.90;14.20;104364.00;;;;5093859;28;20189;-74
2022/03/18 09:12:09;;;;;;;2.07;0.90;;;13.90;99.90;14.10;104358.00;;;;5092882;28;20588;-75
2022/03/18 09:14:37;;;;;;;0.23;0.23;;;13.90;99.90;14.50;104222.00;;;;5093099;28;20173;-76
2022/03/18 09:17:08;;;;;;;0.27;0.27;;;14.10;99.90;14.00;104238.00;;;;5109511;28;20195;-75
2022/03/18 09:19:37;;;;;;;2.90;0.90;;;14.00;99.90;12.40;104257.00;;;;5076061;28;20242;-76
2022/03/18 09:22:07;;;;;;;2.27;0.80;;;13.40;99.90;13.80;104245.00;;;;5093699;28;20190;-76
2022/03/18 09:24:35;;;;;;;0.20;0.20;;;13.70;99.90;14.20;104244.00;;;;5076031;28;20208;-76
2022/03/18 09:27:02;;;;;;;1.07;1.03;;;13.90;99.90;14.10;104249.00;;;;5094123;28;20174;-76
2022/03/18 09:29:27;;;;;;;0.30;0.30;;;14.00;99.90;14.60;104231.00;;;;5077555;28;20628;-76
2022/03/18 09:31:54;;;;;;;0.10;0.10;;;14.40;99.90;15.10;104251.00;;;;5110084;28;20224;-77
2022/03/18 09:34:27;;;;;;;1.13;0.67;;;14.80;99.90;13.00;104277.00;;;;5094646;28;20203;-77
2022/03/18 09:36:58;;;;;;;0.43;0.43;;;14.10;99.90;14.20;104213.00;;;;5107066;28;20535;-72
2022/03/18 09:39:34;;;;;;;0.30;0.30;;;14.20;99.90;13.90;104251.00;;;;5112113;28;20206;-77
2022/03/18 09:42:00;;;;;;;1.20;0.73;;;14.10;99.90;14.40;104247.00;;;;5109022;28;20190;-79
2022/03/18 09:44:37;;;;;;;0.50;0.50;;;14.20;99.90;14.50;104237.00;;;;5109588;28;20189;-77
2022/03/18 09:47:06;;;;;;;0.40;0.40;;;14.70;99.90;15.50;104229.00;;;;5109619;28;20270;-78
2022/03/18 09:49:34;;;;;;;1.00;1.00;;;15.00;99.90;15.40;104181.00;;;;5124373;27;20641;-78
2022/03/18 09:52:20;;;;;;;0.40;0.40;;;15.30;99.90;16.00;104220.00;;;;5107463;28;20733;-78
2022/03/18 09:55:00;;;;;;;0.30;0.30;;;15.70;99.90;15.90;104224.00;;;;5107111;28;20204;-78
2022/03/18 09:57:27;;;;;;;0.20;0.20;;;15.90;99.90;15.60;104217.00;;;;5095523;28;20552;-78
2022/03/18 09:59:53;;;;;;;0.73;0.73;;;15.50;99.90;15.10;104218.00;;;;5112711;28;20175;-78
2022/03/18 10:02:33;;;;;;;1.60;1.50;;;15.60;99.90;15.30;104226.00;;;;5095619;28;20196;-78
2022/03/18 10:05:02;;;;;;;0.67;0.67;;;15.20;99.90;16.30;104217.00;;;;5112368;28;20274;-78
2022/03/18 10:07:33;;;;;;;2.70;0.67;;;15.70;99.90;15.60;104216.00;;;;5113858;28;20268;-78
2022/03/18 10:10:23;;;;;;;0.20;0.20;;;16.00;99.90;15.70;104224.00;;;;5112649;28;20226;-79
2022/03/18 10:12:50;;;;;;;1.70;0.37;;;15.90;99.90;15.50;104235.00;;;;5111753;28;20553;-76
2022/03/18 10:15:22;;;;;;;1.37;1.37;;;15.70;99.70;15.60;104220.00;;;;5094061;28;20191;-79
2022/03/18 10:17:57;;;;;;;0.40;0.40;;;15.50;99.50;15.80;104221.00;;;;5091406;28;20185;-62
2022/03/18 10:39:26;;;;;;;0.23;0.17;;;14.60;99.90;13.80;104260.00;;;;5050121;28;20208;-62
2022/03/18 10:41:52;;;;;;;1.47;0.87;;;14.00;99.90;15.00;104250.00;;;;5048669;28;20204;-62
2022/03/18 10:44:21;;;;;;;2.70;0.60;;;14.70;99.90;15.10;104254.00;;;;5050505;28;20178;-60
2022/03/18 10:46:49;;;;;;;4.53;1.17;;;15.00;99.90;15.60;104223.00;;;;5048771;28;20194;-65
2022/03/18 10:49:16;;;;;;;0.43;0.40;;;15.30;99.90;15.50;104245.00;;;;5032406;28;20215;-70
2022/03/18 10:51:43;;;;;;;0.30;0.30;;;15.60;99.90;15.40;104239.00;;;;5047811;28;20228;-70
2022/03/18 10:54:09;;;;;;;0.60;0.47;;;15.60;99.90;15.40;104248.00;;;;5048552;28;20177;-72
2022/03/18 10:56:57;;;;;;;0.40;0.33;;;15.60;99.90;15.40;104252.00;;;;5032638;28;20245;-72
2022/03/18 10:59:27;;;;;;;0.50;0.50;;;15.60;99.90;16.20;104252.00;;;;5065667;28;20278;-71
2022/03/18 11:01:56;;;;;;;0.10;0.10;;;15.90;99.90;16.10;104239.00;;;;5048187;28;20308;-71
2022/03/18 11:04:29;;;;;;;0.30;0.30;;;15.90;99.90;15.40;104255.00;;;;5048928;28;20287;-71
2022/03/18 11:12:31;;;;;;;1.13;0.93;;;16.00;99.90;15.00;104250.00;;;;5045445;28;20268;-70
2022/03/18 11:14:58;;;;;;;1.23;1.13;;;15.60;99.90;15.40;104253.00;;;;5047899;28;20171;-72
2022/03/18 11:17:28;;;;;;;0.30;0.30;;;15.50;99.90;16.10;104247.00;;;;5041892;28;20668;-70
2022/03/18 11:19:59;;;;;;;0.80;0.80;;;15.80;99.90;15.30;104215.00;;;;5047453;28;20212;-69
2022/03/18 11:22:26;;;;;;;1.17;1.07;;;15.70;99.90;14.90;104265.00;;;;5048901;28;20197;-69
2022/03/18 11:24:53;;;;;;;2.13;1.20;;;15.20;99.90;15.10;104252.00;;;;5048309;28;20192;-69
2022/03/18 11:27:22;;;;;;;0.70;0.70;;;15.30;99.90;15.40;104257.00;;;;5048598;28;20180;-70
2022/03/18 11:30:18;;;;;;;0.70;0.70;;;15.30;99.90;15.40;104255.00;;;;5064978;28;20270;-70
2022/03/18 11:33:15;;;;;;;1.17;1.13;;;15.60;99.90;16.40;104250.00;;;;5047675;28;20310;-70
2022/03/18 11:35:55;;;;;;;6.80;1.90;;;16.00;99.90;15.20;104261.00;;;;5064649;28;20339;-69
2022/03/18 11:38:51;;;;;;;1.50;1.03;;;15.60;99.90;15.10;104255.00;;;;5064590;28;20264;-70
2022/03/18 11:41:19;;;;;;;1.90;0.63;;;15.50;99.90;16.00;104246.00;;;;5049390;28;20637;-71